createdAt,value
2023-03-01T00:03:17.223Z,10.30
2023-03-01T00:08:18.902Z,10.85
2023-03-01T00:13:20.660Z,13.00
2023-03-01T00:18:23.492Z,11.88
2023-03-01T00:23:25.732Z,11.02
2023-03-01T00:28:27.354Z,14.13
2023-03-01T00:33:28.941Z,13.07
2023-03-01T00:38:30.871Z,11.13
2023-03-01T00:43:37.576Z,12.38
2023-03-01T00:48:39.495Z,13.27
2023-03-01T00:53:42.034Z,10.77
2023-03-01T00:58:44.152Z,13.88
2023-03-01T01:03:58.473Z,15.05
2023-03-01T01:09:00.759Z,11.60
2023-03-01T01:14:02.437Z,12.30
2023-03-01T01:19:04.947Z,12.20
2023-03-01T01:24:06.951Z,13.43
2023-03-01T01:29:08.893Z,13.88
2023-03-01T01:34:16.353Z,14.05
2023-03-01T01:39:18.026Z,12.50
2023-03-01T01:44:19.669Z,12.57
2023-03-01T01:49:38.145Z,13.27
2023-03-01T01:54:51.448Z,13.50
2023-03-01T01:59:58.646Z,13.57
2023-03-01T02:05:11.273Z,14.00
2023-03-01T02:10:12.942Z,14.82
2023-03-01T02:15:14.710Z,14.05
2023-03-01T02:20:34.115Z,14.00
2023-03-01T02:26:03.319Z,14.88
2023-03-01T02:31:26.795Z,15.60
2023-03-01T02:36:37.103Z,15.65
2023-03-01T02:41:41.992Z,17.77
2023-03-01T02:46:50.171Z,17.58
2023-03-01T02:52:13.035Z,15.07
2023-03-01T02:57:15.202Z,15.95
2023-03-01T03:02:37.126Z,14.90
2023-03-01T03:07:44.794Z,15.40
2023-03-01T03:12:55.878Z,16.23
2023-03-01T03:17:59.468Z,15.68
2023-03-01T03:23:01.620Z,18.27
2023-03-01T03:28:10.321Z,17.77
2023-03-01T03:33:13.836Z,16.75
2023-03-01T03:38:18.144Z,15.95
2023-03-01T03:43:22.907Z,16.58
2023-03-01T03:48:25.919Z,17.30
2023-03-01T03:53:29.227Z,16.60
2023-03-01T03:58:30.915Z,18.30
2023-03-01T04:03:33.557Z,17.63
2023-03-01T04:08:35.250Z,19.67
2023-03-01T04:13:37.401Z,18.70
2023-03-01T04:18:39.009Z,18.10
2023-03-01T04:23:41.919Z,17.48
2023-03-01T04:28:47.104Z,16.75
2023-03-01T04:33:54.136Z,16.50
2023-03-01T04:38:57.062Z,16.98
2023-03-01T04:44:01.063Z,20.95
2023-03-01T04:49:03.967Z,18.48
2023-03-01T04:54:09.727Z,19.42
2023-03-01T04:59:13.531Z,20.55
2023-03-01T05:04:15.191Z,19.92
2023-03-01T05:09:16.942Z,20.17
2023-03-01T05:14:18.635Z,21.23
2023-03-01T05:19:23.714Z,19.67
2023-03-01T05:24:25.678Z,24.17
2023-03-01T05:29:28.734Z,25.52
2023-03-01T05:34:36.369Z,20.50
2023-03-01T05:39:38.001Z,19.65
2023-03-01T05:44:39.801Z,19.38
2023-03-01T05:49:41.428Z,24.42
2023-03-01T05:54:43.089Z,25.30
2023-03-01T05:59:44.683Z,27.95
2023-03-01T06:04:46.365Z,25.67
2023-03-01T06:09:48.061Z,21.77
2023-03-01T06:14:49.726Z,25.42
2023-03-01T06:19:51.381Z,26.88
2023-03-01T06:24:53.042Z,28.92
2023-03-01T06:29:54.960Z,24.67
2023-03-01T06:34:56.750Z,24.88
2023-03-01T06:39:58.378Z,29.25
2023-03-01T06:45:00.003Z,25.02
2023-03-01T06:50:02.971Z,27.02
2023-03-01T06:55:05.379Z,29.20
2023-03-01T07:00:08.163Z,23.15
2023-03-01T07:05:09.833Z,26.50
2023-03-01T07:10:12.360Z,26.60
2023-03-01T07:15:15.947Z,24.50
2023-03-01T07:20:18.983Z,25.30
2023-03-01T07:25:21.042Z,26.83
2023-03-01T07:30:23.665Z,28.67
2023-03-01T07:35:28.945Z,32.60
2023-03-01T07:40:30.674Z,35.42
2023-03-01T07:45:32.444Z,39.55
2023-03-01T07:50:34.142Z,48.90
2023-03-01T07:55:35.802Z,57.38
2023-03-01T08:00:37.572Z,52.45
2023-03-01T08:05:39.217Z,87.88
2023-03-01T08:10:40.840Z,40.25
2023-03-01T08:15:42.466Z,29.30
2023-03-01T08:20:44.327Z,27.80
2023-03-01T08:25:46.183Z,27.30
2023-03-01T08:30:47.832Z,27.05
2023-03-01T08:35:49.493Z,26.63
2023-03-01T08:40:51.181Z,28.27
2023-03-01T08:45:52.881Z,35.65
2023-03-01T08:50:54.487Z,59.20
2023-03-01T08:55:56.147Z,37.75
2023-03-01T09:00:57.821Z,28.08
2023-03-01T09:06:03.841Z,27.38
2023-03-01T09:11:08.494Z,34.08
2023-03-01T09:16:12.695Z,32.40
2023-03-01T09:21:16.896Z,32.53
2023-03-01T09:26:23.933Z,38.67
2023-03-01T09:31:25.952Z,33.88
2023-03-01T09:36:27.647Z,37.83
2023-03-01T09:41:47.495Z,34.65
2023-03-01T09:46:49.613Z,31.47
2023-03-01T09:52:10.097Z,30.42
2023-03-01T10:03:00.447Z,28.25
2023-03-01T10:08:20.341Z,29.90
2023-03-01T10:13:53.849Z,28.17
2023-03-01T10:19:03.095Z,35.47
2023-03-01T10:24:17.564Z,33.08
2023-03-01T10:29:25.108Z,36.55
2023-03-01T10:34:33.322Z,36.05
2023-03-01T10:39:35.182Z,28.55
2023-03-01T10:44:40.407Z,32.00
2023-03-01T10:49:56.086Z,23.73
2023-03-01T10:55:03.961Z,25.55
2023-03-01T11:00:26.428Z,26.35
2023-03-01T11:05:35.273Z,21.90
2023-03-01T11:10:37.603Z,17.88
2023-03-01T11:15:39.321Z,14.57
2023-03-01T11:20:41.865Z,17.13
2023-03-01T11:25:50.343Z,15.85
2023-03-01T11:31:08.324Z,10.93
2023-03-01T11:36:16.494Z,12.40
2023-03-01T11:41:22.523Z,11.90
2023-03-01T11:46:33.027Z,13.20
2023-03-01T11:52:03.345Z,11.95
2023-03-01T11:57:43.326Z,12.75
2023-03-01T12:02:59.311Z,11.93
2023-03-01T12:08:09.990Z,12.15
2023-03-01T12:13:38.712Z,14.57
2023-03-01T12:19:13.070Z,11.60
2023-03-01T12:24:39.906Z,16.05
2023-03-01T12:29:52.142Z,12.90
2023-03-01T12:35:13.592Z,12.95
2023-03-01T12:40:50.832Z,13.48
2023-03-01T12:46:10.439Z,13.63
2023-03-01T12:51:16.856Z,13.43
2023-03-01T12:56:23.796Z,15.10
2023-03-01T13:01:34.165Z,13.90
2023-03-01T13:07:05.713Z,14.60
2023-03-01T13:12:45.855Z,17.08
2023-03-01T13:17:47.573Z,16.02
2023-03-01T13:23:02.577Z,12.68
2023-03-01T13:28:29.066Z,13.95
2023-03-01T13:33:31.798Z,12.68
2023-03-01T13:38:47.123Z,14.02
2023-03-01T13:43:49.052Z,12.95
2023-03-01T13:48:57.699Z,13.80
2023-03-01T13:54:00.350Z,14.23
2023-03-01T13:59:15.820Z,12.88
2023-03-01T14:04:32.399Z,13.90
2023-03-01T14:09:34.782Z,13.88
2023-03-01T14:14:45.493Z,11.90
2023-03-01T14:19:48.997Z,13.93
2023-03-01T14:25:00.457Z,12.13
2023-03-01T14:30:11.067Z,20.90
2023-03-01T14:35:32.818Z,17.33
2023-03-01T14:40:37.107Z,14.95
2023-03-01T14:45:38.805Z,16.20
2023-03-01T14:50:45.596Z,15.52
2023-03-01T14:55:51.836Z,13.32
2023-03-01T15:00:57.006Z,14.60
2023-03-01T15:06:01.473Z,17.15
2023-03-01T15:11:19.863Z,4.50
2023-03-01T15:16:27.927Z,12.63
2023-03-01T15:21:33.973Z,12.15
2023-03-01T15:26:42.690Z,3.85
2023-03-01T15:31:44.672Z,11.95
2023-03-01T15:36:50.776Z,10.73
2023-03-01T15:41:52.557Z,11.63
2023-03-01T15:46:54.381Z,17.98
2023-03-01T15:51:56.397Z,11.73
2023-03-01T15:56:58.060Z,10.80
2023-03-01T16:01:59.659Z,8.95
2023-03-01T16:07:02.092Z,9.93
2023-03-01T16:12:03.895Z,10.50
2023-03-01T16:17:06.342Z,9.00
2023-03-01T16:22:10.818Z,10.77
2023-03-01T16:27:12.488Z,10.35
2023-03-01T16:32:14.281Z,13.48
2023-03-01T16:37:17.058Z,12.38
2023-03-01T16:42:18.985Z,10.43
2023-03-01T16:47:20.776Z,10.95
2023-03-01T16:52:23.372Z,11.10
2023-03-01T16:57:25.038Z,12.98
2023-03-01T17:02:27.276Z,11.57
2023-03-01T17:07:29.500Z,20.15
2023-03-01T17:12:31.143Z,15.13
2023-03-01T17:17:33.210Z,20.92
2023-03-01T17:22:35.010Z,22.23
2023-03-01T17:27:40.633Z,20.90
2023-03-01T17:32:42.427Z,19.23
2023-03-01T17:37:46.551Z,19.52
2023-03-01T17:42:48.312Z,19.63
2023-03-01T17:47:50.039Z,18.45
2023-03-01T17:52:51.757Z,21.45
2023-03-01T17:57:53.385Z,30.88
2023-03-01T18:02:55.112Z,24.65
2023-03-01T18:07:56.675Z,19.60
2023-03-01T18:12:58.309Z,20.52
2023-03-01T18:18:00.067Z,22.02
2023-03-01T18:23:01.759Z,18.55
2023-03-01T18:28:03.526Z,17.00
2023-03-01T18:33:05.381Z,16.85
2023-03-01T18:38:07.125Z,21.15
2023-03-01T18:43:08.899Z,12.77
2023-03-01T18:48:14.369Z,22.10
2023-03-01T18:53:16.029Z,17.17
2023-03-01T18:58:17.596Z,18.85
2023-03-01T19:03:19.178Z,17.88
2023-03-01T19:08:20.989Z,19.55
2023-03-01T19:13:22.754Z,17.45
2023-03-01T19:18:24.324Z,18.83
2023-03-01T19:23:25.930Z,20.30
2023-03-01T19:28:27.991Z,17.70
2023-03-01T19:33:31.224Z,19.63
2023-03-01T19:38:32.910Z,15.93
2023-03-01T19:43:35.447Z,20.55
2023-03-01T19:48:37.438Z,17.45
2023-03-01T19:53:40.544Z,18.38
2023-03-01T19:58:43.319Z,20.48
2023-03-01T20:03:45.917Z,18.20
2023-03-01T20:08:50.561Z,19.75
2023-03-01T20:13:52.363Z,16.20
2023-03-01T20:18:54.461Z,19.98
2023-03-01T20:23:56.123Z,19.33
2023-03-01T20:28:57.800Z,19.85
2023-03-01T20:34:00.046Z,18.75
2023-03-01T20:39:01.715Z,18.63
2023-03-01T20:44:06.504Z,17.42
2023-03-01T20:49:08.183Z,17.83
2023-03-01T20:54:10.636Z,18.65
2023-03-01T20:59:12.916Z,20.27
2023-03-01T21:04:14.583Z,19.00
2023-03-01T21:09:16.408Z,20.48
2023-03-01T21:14:18.183Z,18.45
2023-03-01T21:19:22.807Z,19.60
2023-03-01T21:24:25.171Z,20.75
2023-03-01T21:29:26.798Z,21.30
2023-03-01T21:34:28.363Z,21.00
2023-03-01T21:39:30.578Z,23.45
2023-03-01T21:44:33.034Z,24.95
2023-03-01T21:49:37.280Z,24.73
2023-03-01T21:54:38.904Z,24.15
2023-03-01T21:59:41.173Z,28.23
2023-03-01T22:04:42.988Z,27.10
2023-03-01T22:09:44.780Z,25.92
2023-03-01T22:14:46.574Z,24.67
2023-03-01T22:19:48.316Z,24.58
2023-03-01T22:24:50.073Z,25.98
2023-03-01T22:29:51.912Z,23.65
2023-03-01T22:34:53.745Z,23.73
2023-03-01T22:39:57.334Z,23.98
2023-03-01T22:44:59.551Z,23.50
2023-03-01T22:50:01.423Z,23.23
2023-03-01T22:55:03.271Z,24.52
2023-03-01T23:00:07.799Z,24.92
2023-03-01T23:05:10.596Z,27.90
2023-03-01T23:10:13.639Z,28.10
2023-03-01T23:15:15.467Z,26.88
2023-03-01T23:20:17.740Z,27.92
2023-03-01T23:25:19.535Z,24.88
2023-03-01T23:30:21.467Z,26.60
2023-03-01T23:35:23.228Z,27.00
2023-03-01T23:40:25.027Z,24.70
2023-03-01T23:45:26.810Z,24.17
2023-03-01T23:50:28.690Z,24.02
2023-03-01T23:55:30.751Z,24.30
